createdAt,value
2022-11-27T18:21:32.249Z,52.74
2022-11-27T18:22:36.366Z,52.68
2022-11-27T18:24:24.791Z,52.54
2022-11-27T18:25:29.267Z,52.51
2022-11-27T18:27:10.428Z,52.43
2022-11-27T18:28:14.593Z,52.41
2022-11-27T18:29:18.751Z,52.48
2022-11-27T18:30:22.849Z,52.37
2022-11-27T18:31:27.332Z,52.36
2022-11-27T18:32:31.477Z,52.32
2022-11-27T18:33:35.604Z,52.33
2022-11-27T18:34:39.705Z,52.33
2022-11-27T18:35:43.855Z,52.5
2022-11-27T18:36:48.107Z,52.49
2022-11-27T18:37:52.213Z,52.54
2022-11-27T18:38:56.327Z,52.72
2022-11-27T18:40:00.527Z,52.69
2022-11-27T18:41:04.623Z,52.71
2022-11-27T18:42:08.743Z,52.87
2022-11-27T18:43:12.996Z,53.01
2022-11-27T18:44:17.166Z,53.06
2022-11-27T18:45:35.952Z,53.19
2022-11-27T18:46:40.606Z,53.14
2022-11-27T18:47:44.700Z,53.19
2022-11-27T18:48:48.813Z,53.31
2022-11-27T18:49:52.921Z,53.1
2022-11-27T18:50:57.025Z,53.12
2022-11-27T18:52:01.122Z,53.01
2022-11-27T18:53:05.215Z,53.03
2022-11-27T18:54:09.339Z,52.93
2022-11-27T18:55:13.462Z,52.91
2022-11-27T18:56:17.564Z,52.74
2022-11-27T18:57:21.668Z,52.72
2022-11-27T18:58:25.804Z,52.81
2022-11-27T18:59:29.918Z,52.82
2022-11-27T19:00:34.045Z,52.93
2022-11-27T19:01:43.915Z,52.99
2022-11-27T19:02:48.312Z,52.94
2022-11-27T19:03:52.459Z,52.89
2022-11-27T19:04:56.584Z,52.9
2022-11-27T19:06:00.710Z,52.92
2022-11-27T19:07:04.805Z,52.9
2022-11-27T19:08:08.919Z,52.9
2022-11-27T19:09:13.025Z,52.86
2022-11-27T19:10:17.131Z,52.87
2022-11-27T19:11:21.250Z,52.8
2022-11-27T19:12:25.348Z,52.76
2022-11-27T19:13:29.444Z,52.76
2022-11-27T19:14:33.547Z,52.89
2022-11-27T19:15:37.643Z,53.03
2022-11-27T19:16:42.137Z,53.1
2022-11-27T19:17:46.271Z,53.15
2022-11-27T19:18:50.377Z,53.24
2022-11-27T19:19:56.876Z,53.32
2022-11-27T19:21:00.986Z,53.37
2022-11-27T19:22:05.119Z,53.35
2022-11-27T19:23:09.204Z,53.42
2022-11-27T19:24:13.297Z,53.41
2022-11-27T19:25:17.455Z,53.54
2022-11-27T19:26:21.555Z,53.48
2022-11-27T19:27:25.664Z,53.48
2022-11-27T19:28:29.761Z,53.42
2022-11-27T19:29:36.967Z,53.54
2022-11-27T19:30:41.072Z,53.47
2022-11-27T19:31:45.446Z,53.27
2022-11-27T19:32:49.555Z,53.24
2022-11-27T19:33:53.660Z,53.16
2022-11-27T19:35:08.376Z,53.07
2022-11-27T19:36:12.478Z,52.99
2022-11-27T19:37:34.331Z,53.01
2022-11-27T19:38:38.951Z,53.03
2022-11-27T19:39:43.078Z,53.05
2022-11-27T19:40:47.218Z,53.09
2022-11-27T19:41:51.322Z,53.15
2022-11-27T19:43:02.309Z,53.08
2022-11-27T19:44:06.418Z,53.13
2022-11-27T19:45:10.573Z,53.25
2022-11-27T19:46:14.866Z,53.3
2022-11-27T19:47:19.242Z,53.3
2022-11-27T19:48:25.320Z,53.34
2022-11-27T19:49:29.475Z,53.39
2022-11-27T19:50:33.593Z,53.43
2022-11-27T19:51:37.696Z,53.51
2022-11-27T19:52:41.803Z,53.62
2022-11-27T19:53:45.909Z,53.67
2022-11-27T19:54:50.104Z,53.62
2022-11-27T19:55:54.201Z,53.77
2022-11-27T19:56:58.346Z,53.85
2022-11-27T19:58:02.471Z,53.78
2022-11-27T19:59:06.580Z,53.77
2022-11-27T20:00:10.699Z,53.7
2022-11-27T20:01:15.078Z,53.73
2022-11-27T20:02:19.459Z,53.65
2022-11-27T20:05:15.700Z,53.65
2022-11-27T20:06:19.886Z,53.64
2022-11-27T20:07:24.296Z,53.72
2022-11-27T20:08:28.450Z,53.61
2022-11-27T20:09:32.590Z,53.71
2022-11-27T20:10:36.690Z,53.67
2022-11-27T20:11:40.789Z,53.77
2022-11-27T20:12:44.906Z,53.92
2022-11-27T20:13:49.007Z,53.92
2022-11-27T20:14:53.141Z,54.03
2022-11-27T20:15:57.236Z,53.89
2022-11-27T20:17:01.628Z,53.9
2022-11-27T20:18:05.803Z,53.87
2022-11-27T20:19:09.915Z,53.92
2022-11-27T20:20:14.036Z,53.83
2022-11-27T20:21:18.148Z,53.73
2022-11-27T20:22:22.241Z,53.68
2022-11-27T20:23:26.373Z,53.72
2022-11-27T20:24:30.494Z,53.72
2022-11-27T20:25:34.636Z,53.72
2022-11-27T20:26:44.035Z,53.71
2022-11-27T20:27:48.166Z,53.9
2022-11-27T20:28:52.281Z,53.98
2022-11-27T20:29:56.391Z,53.87
2022-11-27T20:31:00.504Z,54.26
2022-11-27T20:32:04.976Z,54.02
2022-11-27T20:33:09.851Z,53.97
2022-11-27T20:34:13.975Z,54.01
2022-11-27T20:35:18.094Z,53.95
2022-11-27T20:36:22.213Z,53.9
2022-11-27T20:37:26.349Z,53.83
2022-11-27T20:38:30.486Z,53.97
2022-11-27T20:39:38.578Z,53.85
2022-11-27T20:40:42.718Z,53.8
2022-11-27T20:41:46.849Z,53.63
